sensor_id;sensor_type;location;lat;lon;timestamp;P1;durP1;ratioP1;P2;durP2;ratioP2
77571;SDS011;67214;47.454;18.966;2023-08-30T00:02:22;5.55;;;4.50;;
77571;SDS011;67214;47.454;18.966;2023-08-30T00:04:49;5.40;;;4.90;;
77571;SDS011;67214;47.454;18.966;2023-08-30T00:07:17;5.95;;;5.35;;
77571;SDS011;67214;47.454;18.966;2023-08-30T00:09:44;8.88;;;5.67;;
77571;SDS011;67214;47.454;18.966;2023-08-30T00:12:11;6.45;;;5.85;;
77571;SDS011;67214;47.454;18.966;2023-08-30T00:14:39;9.13;;;6.67;;
77571;SDS011;67214;47.454;18.966;2023-08-30T00:17:06;8.43;;;7.55;;
77571;SDS011;67214;47.454;18.966;2023-08-30T00:19:34;11.48;;;8.58;;
77571;SDS011;67214;47.454;18.966;2023-08-30T00:22:02;11.10;;;8.63;;
77571;SDS011;67214;47.454;18.966;2023-08-30T00:24:31;10.68;;;9.48;;
77571;SDS011;67214;47.454;18.966;2023-08-30T00:26:59;11.50;;;10.20;;
77571;SDS011;67214;47.454;18.966;2023-08-30T00:29:27;12.70;;;9.50;;
77571;SDS011;67214;47.454;18.966;2023-08-30T00:31:55;8.20;;;7.40;;
77571;SDS011;67214;47.454;18.966;2023-08-30T00:34:23;8.83;;;7.05;;
77571;SDS011;67214;47.454;18.966;2023-08-30T00:36:50;8.90;;;7.53;;
77571;SDS011;67214;47.454;18.966;2023-08-30T00:39:18;13.35;;;8.85;;
77571;SDS011;67214;47.454;18.966;2023-08-30T00:41:45;10.60;;;9.50;;
77571;SDS011;67214;47.454;18.966;2023-08-30T00:44:13;11.60;;;9.55;;
77571;SDS011;67214;47.454;18.966;2023-08-30T00:46:41;10.60;;;9.50;;
77571;SDS011;67214;47.454;18.966;2023-08-30T00:49:08;12.55;;;10.30;;
77571;SDS011;67214;47.454;18.966;2023-08-30T00:51:36;11.95;;;10.43;;
77571;SDS011;67214;47.454;18.966;2023-08-30T00:54:04;14.60;;;10.85;;
77571;SDS011;67214;47.454;18.966;2023-08-30T00:56:32;13.62;;;11.78;;
77571;SDS011;67214;47.454;18.966;2023-08-30T00:59:00;14.28;;;11.95;;
77571;SDS011;67214;47.454;18.966;2023-08-30T01:01:27;15.65;;;13.72;;
77571;SDS011;67214;47.454;18.966;2023-08-30T01:03:55;15.72;;;14.10;;
77571;SDS011;67214;47.454;18.966;2023-08-30T01:06:22;16.37;;;13.38;;
77571;SDS011;67214;47.454;18.966;2023-08-30T01:08:50;15.35;;;13.75;;
77571;SDS011;67214;47.454;18.966;2023-08-30T01:13:56;16.50;;;13.60;;
77571;SDS011;67214;47.454;18.966;2023-08-30T01:16:33;14.93;;;13.43;;
77571;SDS011;67214;47.454;18.966;2023-08-30T01:19:04;16.55;;;14.75;;
77571;SDS011;67214;47.454;18.966;2023-08-30T01:21:38;16.50;;;14.78;;
77571;SDS011;67214;47.454;18.966;2023-08-30T01:24:28;17.20;;;15.40;;
77571;SDS011;67214;47.454;18.966;2023-08-30T01:29:36;18.57;;;15.35;;
77571;SDS011;67214;47.454;18.966;2023-08-30T01:32:05;17.48;;;15.38;;
77571;SDS011;67214;47.454;18.966;2023-08-30T01:34:36;17.80;;;15.38;;
77571;SDS011;67214;47.454;18.966;2023-08-30T01:37:06;18.27;;;14.93;;
77571;SDS011;67214;47.454;18.966;2023-08-30T01:39:39;17.73;;;15.75;;
77571;SDS011;67214;47.454;18.966;2023-08-30T01:42:06;17.10;;;13.53;;
77571;SDS011;67214;47.454;18.966;2023-08-30T01:44:35;15.80;;;14.13;;
77571;SDS011;67214;47.454;18.966;2023-08-30T01:47:04;15.75;;;11.55;;
77571;SDS011;67214;47.454;18.966;2023-08-30T01:49:32;15.30;;;11.95;;
77571;SDS011;67214;47.454;18.966;2023-08-30T01:52:02;18.92;;;12.45;;
77571;SDS011;67214;47.454;18.966;2023-08-30T01:54:30;15.45;;;12.65;;
77571;SDS011;67214;47.454;18.966;2023-08-30T01:56:58;16.52;;;13.48;;
77571;SDS011;67214;47.454;18.966;2023-08-30T01:59:26;17.70;;;12.15;;
77571;SDS011;67214;47.454;18.966;2023-08-30T02:01:53;16.62;;;12.25;;
77571;SDS011;67214;47.454;18.966;2023-08-30T02:04:20;16.17;;;13.38;;
77571;SDS011;67214;47.454;18.966;2023-08-30T02:06:49;17.05;;;12.78;;
77571;SDS011;67214;47.454;18.966;2023-08-30T02:09:26;15.48;;;12.25;;
77571;SDS011;67214;47.454;18.966;2023-08-30T02:11:55;17.10;;;12.90;;
77571;SDS011;67214;47.454;18.966;2023-08-30T02:14:26;15.95;;;12.47;;
77571;SDS011;67214;47.454;18.966;2023-08-30T02:16:54;16.60;;;12.20;;
77571;SDS011;67214;47.454;18.966;2023-08-30T02:19:22;15.32;;;11.25;;
77571;SDS011;67214;47.454;18.966;2023-08-30T02:21:50;16.35;;;12.88;;
77571;SDS011;67214;47.454;18.966;2023-08-30T02:24:18;17.60;;;12.25;;
77571;SDS011;67214;47.454;18.966;2023-08-30T02:26:45;16.80;;;13.13;;
77571;SDS011;67214;47.454;18.966;2023-08-30T02:29:13;16.67;;;13.00;;
77571;SDS011;67214;47.454;18.966;2023-08-30T02:31:40;18.05;;;12.45;;
77571;SDS011;67214;47.454;18.966;2023-08-30T02:34:08;17.67;;;11.40;;
77571;SDS011;67214;47.454;18.966;2023-08-30T02:36:35;17.00;;;11.65;;
77571;SDS011;67214;47.454;18.966;2023-08-30T02:39:03;17.17;;;12.25;;
77571;SDS011;67214;47.454;18.966;2023-08-30T02:41:30;16.73;;;12.55;;
77571;SDS011;67214;47.454;18.966;2023-08-30T02:43:58;16.48;;;13.13;;
77571;SDS011;67214;47.454;18.966;2023-08-30T02:46:25;17.30;;;13.00;;
77571;SDS011;67214;47.454;18.966;2023-08-30T02:48:53;18.12;;;12.93;;
77571;SDS011;67214;47.454;18.966;2023-08-30T02:51:20;18.20;;;13.62;;
77571;SDS011;67214;47.454;18.966;2023-08-30T02:53:48;18.50;;;13.68;;
77571;SDS011;67214;47.454;18.966;2023-08-30T02:56:15;17.82;;;13.35;;
77571;SDS011;67214;47.454;18.966;2023-08-30T02:58:43;19.70;;;13.68;;
77571;SDS011;67214;47.454;18.966;2023-08-30T03:01:10;18.98;;;13.22;;
77571;SDS011;67214;47.454;18.966;2023-08-30T03:03:38;17.23;;;12.95;;
77571;SDS011;67214;47.454;18.966;2023-08-30T03:06:05;18.00;;;13.80;;
77571;SDS011;67214;47.454;18.966;2023-08-30T03:08:33;19.85;;;13.58;;
77571;SDS011;67214;47.454;18.966;2023-08-30T03:11:08;18.37;;;13.78;;
77571;SDS011;67214;47.454;18.966;2023-08-30T03:16:12;17.37;;;12.90;;
77571;SDS011;67214;47.454;18.966;2023-08-30T03:18:42;18.15;;;14.73;;
77571;SDS011;67214;47.454;18.966;2023-08-30T03:21:10;18.45;;;13.55;;
77571;SDS011;67214;47.454;18.966;2023-08-30T03:23:38;18.02;;;12.28;;
77571;SDS011;67214;47.454;18.966;2023-08-30T03:26:13;16.60;;;12.65;;
77571;SDS011;67214;47.454;18.966;2023-08-30T03:28:42;17.87;;;13.10;;
77571;SDS011;67214;47.454;18.966;2023-08-30T03:31:11;17.50;;;13.22;;
77571;SDS011;67214;47.454;18.966;2023-08-30T03:33:42;22.37;;;13.93;;
77571;SDS011;67214;47.454;18.966;2023-08-30T03:36:11;16.15;;;12.37;;
77571;SDS011;67214;47.454;18.966;2023-08-30T03:38:39;15.65;;;13.62;;
77571;SDS011;67214;47.454;18.966;2023-08-30T03:41:08;15.75;;;12.98;;
77571;SDS011;67214;47.454;18.966;2023-08-30T03:43:36;18.57;;;13.32;;
77571;SDS011;67214;47.454;18.966;2023-08-30T03:46:04;15.95;;;13.10;;
77571;SDS011;67214;47.454;18.966;2023-08-30T03:48:32;16.27;;;12.90;;
77571;SDS011;67214;47.454;18.966;2023-08-30T03:50:59;15.20;;;12.13;;
77571;SDS011;67214;47.454;18.966;2023-08-30T03:53:27;17.02;;;12.43;;
77571;SDS011;67214;47.454;18.966;2023-08-30T03:55:55;19.42;;;12.15;;
77571;SDS011;67214;47.454;18.966;2023-08-30T03:58:23;14.68;;;11.80;;
77571;SDS011;67214;47.454;18.966;2023-08-30T04:00:50;17.30;;;12.07;;
77571;SDS011;67214;47.454;18.966;2023-08-30T04:03:18;14.65;;;10.93;;
77571;SDS011;67214;47.454;18.966;2023-08-30T04:05:45;13.13;;;10.98;;
77571;SDS011;67214;47.454;18.966;2023-08-30T04:08:13;14.98;;;10.65;;
77571;SDS011;67214;47.454;18.966;2023-08-30T04:10:40;13.40;;;10.60;;
77571;SDS011;67214;47.454;18.966;2023-08-30T04:13:09;14.33;;;10.40;;
77571;SDS011;67214;47.454;18.966;2023-08-30T04:15:37;15.83;;;10.30;;
77571;SDS011;67214;47.454;18.966;2023-08-30T04:18:05;15.10;;;11.43;;
77571;SDS011;67214;47.454;18.966;2023-08-30T04:20:33;13.55;;;10.50;;
77571;SDS011;67214;47.454;18.966;2023-08-30T04:23:01;16.07;;;11.70;;
77571;SDS011;67214;47.454;18.966;2023-08-30T04:25:29;14.83;;;11.38;;
77571;SDS011;67214;47.454;18.966;2023-08-30T04:27:58;16.30;;;11.38;;
77571;SDS011;67214;47.454;18.966;2023-08-30T04:30:25;13.30;;;10.48;;
77571;SDS011;67214;47.454;18.966;2023-08-30T04:32:53;18.00;;;12.07;;
77571;SDS011;67214;47.454;18.966;2023-08-30T04:35:20;15.88;;;11.20;;
77571;SDS011;67214;47.454;18.966;2023-08-30T04:37:47;14.75;;;11.25;;
77571;SDS011;67214;47.454;18.966;2023-08-30T04:40:15;13.85;;;10.55;;
77571;SDS011;67214;47.454;18.966;2023-08-30T04:42:42;15.75;;;10.82;;
77571;SDS011;67214;47.454;18.966;2023-08-30T04:45:10;15.70;;;11.28;;
77571;SDS011;67214;47.454;18.966;2023-08-30T04:47:37;18.50;;;11.73;;
77571;SDS011;67214;47.454;18.966;2023-08-30T04:50:05;16.85;;;10.45;;
77571;SDS011;67214;47.454;18.966;2023-08-30T04:52:33;15.98;;;10.63;;
77571;SDS011;67214;47.454;18.966;2023-08-30T04:55:00;14.03;;;10.70;;
77571;SDS011;67214;47.454;18.966;2023-08-30T04:57:28;15.25;;;11.05;;
77571;SDS011;67214;47.454;18.966;2023-08-30T04:59:56;13.68;;;9.95;;
77571;SDS011;67214;47.454;18.966;2023-08-30T05:02:25;12.43;;;9.90;;
77571;SDS011;67214;47.454;18.966;2023-08-30T05:04:52;15.18;;;10.55;;
77571;SDS011;67214;47.454;18.966;2023-08-30T05:07:20;12.93;;;9.80;;
77571;SDS011;67214;47.454;18.966;2023-08-30T05:09:47;15.23;;;10.08;;
77571;SDS011;67214;47.454;18.966;2023-08-30T05:12:14;14.73;;;9.95;;
77571;SDS011;67214;47.454;18.966;2023-08-30T05:14:42;12.95;;;9.53;;
77571;SDS011;67214;47.454;18.966;2023-08-30T05:17:09;12.53;;;9.23;;
77571;SDS011;67214;47.454;18.966;2023-08-30T05:19:37;12.60;;;9.48;;
77571;SDS011;67214;47.454;18.966;2023-08-30T05:22:04;14.03;;;9.00;;
77571;SDS011;67214;47.454;18.966;2023-08-30T05:24:32;14.23;;;9.30;;
77571;SDS011;67214;47.454;18.966;2023-08-30T05:26:59;13.25;;;9.63;;
77571;SDS011;67214;47.454;18.966;2023-08-30T05:29:26;11.65;;;9.55;;
77571;SDS011;67214;47.454;18.966;2023-08-30T05:31:54;12.73;;;8.95;;
77571;SDS011;67214;47.454;18.966;2023-08-30T05:34:21;13.75;;;8.65;;
77571;SDS011;67214;47.454;18.966;2023-08-30T05:36:49;13.18;;;9.65;;
77571;SDS011;67214;47.454;18.966;2023-08-30T05:39:16;14.70;;;10.23;;
77571;SDS011;67214;47.454;18.966;2023-08-30T05:41:44;11.88;;;9.95;;
77571;SDS011;67214;47.454;18.966;2023-08-30T05:44:11;12.55;;;8.83;;
77571;SDS011;67214;47.454;18.966;2023-08-30T05:46:39;12.35;;;9.98;;
77571;SDS011;67214;47.454;18.966;2023-08-30T05:49:06;12.15;;;9.38;;
77571;SDS011;67214;47.454;18.966;2023-08-30T05:51:34;12.68;;;8.43;;
77571;SDS011;67214;47.454;18.966;2023-08-30T05:54:01;10.98;;;7.35;;
77571;SDS011;67214;47.454;18.966;2023-08-30T05:56:29;9.05;;;7.83;;
77571;SDS011;67214;47.454;18.966;2023-08-30T05:58:56;11.05;;;7.97;;
77571;SDS011;67214;47.454;18.966;2023-08-30T06:01:23;11.93;;;8.33;;
77571;SDS011;67214;47.454;18.966;2023-08-30T06:03:51;9.40;;;6.78;;
77571;SDS011;67214;47.454;18.966;2023-08-30T06:06:18;9.98;;;7.25;;
77571;SDS011;67214;47.454;18.966;2023-08-30T06:08:46;12.43;;;7.30;;
77571;SDS011;67214;47.454;18.966;2023-08-30T06:11:13;7.72;;;6.92;;
77571;SDS011;67214;47.454;18.966;2023-08-30T06:13:41;10.78;;;7.25;;
77571;SDS011;67214;47.454;18.966;2023-08-30T06:16:08;9.95;;;7.75;;
77571;SDS011;67214;47.454;18.966;2023-08-30T06:18:36;10.25;;;7.15;;
77571;SDS011;67214;47.454;18.966;2023-08-30T06:21:03;9.78;;;8.20;;
77571;SDS011;67214;47.454;18.966;2023-08-30T06:23:32;11.22;;;9.35;;
77571;SDS011;67214;47.454;18.966;2023-08-30T06:26:00;13.53;;;8.73;;
77571;SDS011;67214;47.454;18.966;2023-08-30T06:28:28;10.63;;;8.65;;
77571;SDS011;67214;47.454;18.966;2023-08-30T06:30:55;11.40;;;8.95;;
77571;SDS011;67214;47.454;18.966;2023-08-30T06:33:23;10.55;;;8.78;;
77571;SDS011;67214;47.454;18.966;2023-08-30T06:35:50;12.05;;;9.45;;
77571;SDS011;67214;47.454;18.966;2023-08-30T06:38:19;12.05;;;8.75;;
77571;SDS011;67214;47.454;18.966;2023-08-30T06:40:47;11.83;;;9.50;;
77571;SDS011;67214;47.454;18.966;2023-08-30T06:43:14;10.68;;;8.53;;
77571;SDS011;67214;47.454;18.966;2023-08-30T06:45:42;13.62;;;8.55;;
77571;SDS011;67214;47.454;18.966;2023-08-30T06:48:09;10.75;;;8.75;;
77571;SDS011;67214;47.454;18.966;2023-08-30T06:50:37;11.68;;;9.48;;
77571;SDS011;67214;47.454;18.966;2023-08-30T06:53:04;12.00;;;9.40;;
77571;SDS011;67214;47.454;18.966;2023-08-30T06:55:31;12.18;;;8.90;;
77571;SDS011;67214;47.454;18.966;2023-08-30T06:58:01;12.33;;;9.68;;
77571;SDS011;67214;47.454;18.966;2023-08-30T07:00:28;16.48;;;10.08;;
77571;SDS011;67214;47.454;18.966;2023-08-30T07:02:56;11.50;;;9.03;;
77571;SDS011;67214;47.454;18.966;2023-08-30T07:05:23;14.43;;;10.18;;
77571;SDS011;67214;47.454;18.966;2023-08-30T07:07:50;12.43;;;9.83;;
77571;SDS011;67214;47.454;18.966;2023-08-30T07:10:18;13.20;;;10.05;;
77571;SDS011;67214;47.454;18.966;2023-08-30T07:12:45;12.63;;;9.60;;
77571;SDS011;67214;47.454;18.966;2023-08-30T07:15:14;11.30;;;9.45;;
77571;SDS011;67214;47.454;18.966;2023-08-30T07:17:42;14.40;;;10.40;;
77571;SDS011;67214;47.454;18.966;2023-08-30T07:20:10;10.90;;;8.95;;
77571;SDS011;67214;47.454;18.966;2023-08-30T07:22:37;12.03;;;10.23;;
77571;SDS011;67214;47.454;18.966;2023-08-30T07:25:05;13.50;;;10.13;;
77571;SDS011;67214;47.454;18.966;2023-08-30T07:27:35;11.97;;;10.43;;
77571;SDS011;67214;47.454;18.966;2023-08-30T07:30:03;12.90;;;9.88;;
77571;SDS011;67214;47.454;18.966;2023-08-30T07:32:31;10.70;;;9.60;;
77571;SDS011;67214;47.454;18.966;2023-08-30T07:34:59;12.37;;;10.05;;
77571;SDS011;67214;47.454;18.966;2023-08-30T07:37:26;10.93;;;9.75;;
77571;SDS011;67214;47.454;18.966;2023-08-30T07:39:53;14.53;;;11.73;;
77571;SDS011;67214;47.454;18.966;2023-08-30T07:42:21;16.62;;;11.40;;
77571;SDS011;67214;47.454;18.966;2023-08-30T07:44:48;15.53;;;11.28;;
77571;SDS011;67214;47.454;18.966;2023-08-30T07:47:16;15.08;;;12.10;;
77571;SDS011;67214;47.454;18.966;2023-08-30T07:49:43;15.05;;;11.40;;
77571;SDS011;67214;47.454;18.966;2023-08-30T07:52:11;13.15;;;10.60;;
77571;SDS011;67214;47.454;18.966;2023-08-30T07:54:39;18.73;;;11.63;;
77571;SDS011;67214;47.454;18.966;2023-08-30T07:57:07;13.55;;;11.28;;
77571;SDS011;67214;47.454;18.966;2023-08-30T07:59:37;13.55;;;10.28;;
77571;SDS011;67214;47.454;18.966;2023-08-30T08:02:05;16.95;;;11.15;;
77571;SDS011;67214;47.454;18.966;2023-08-30T08:04:33;13.25;;;9.93;;
77571;SDS011;67214;47.454;18.966;2023-08-30T08:07:01;16.65;;;10.98;;
77571;SDS011;67214;47.454;18.966;2023-08-30T08:09:30;13.70;;;10.63;;
77571;SDS011;67214;47.454;18.966;2023-08-30T08:11:59;14.38;;;11.70;;
77571;SDS011;67214;47.454;18.966;2023-08-30T08:14:26;14.40;;;10.35;;
77571;SDS011;67214;47.454;18.966;2023-08-30T08:16:54;17.85;;;11.63;;
77571;SDS011;67214;47.454;18.966;2023-08-30T08:19:21;14.05;;;9.90;;
77571;SDS011;67214;47.454;18.966;2023-08-30T08:21:48;11.95;;;9.38;;
77571;SDS011;67214;47.454;18.966;2023-08-30T08:24:16;14.60;;;10.95;;
77571;SDS011;67214;47.454;18.966;2023-08-30T08:26:43;9.68;;;8.33;;
77571;SDS011;67214;47.454;18.966;2023-08-30T08:29:11;13.48;;;9.53;;
77571;SDS011;67214;47.454;18.966;2023-08-30T08:31:39;11.48;;;9.50;;
77571;SDS011;67214;47.454;18.966;2023-08-30T08:34:12;15.10;;;9.88;;
77571;SDS011;67214;47.454;18.966;2023-08-30T08:36:38;13.83;;;9.80;;
77571;SDS011;67214;47.454;18.966;2023-08-30T08:39:06;14.43;;;9.23;;
77571;SDS011;67214;47.454;18.966;2023-08-30T08:41:37;12.88;;;9.15;;
77571;SDS011;67214;47.454;18.966;2023-08-30T08:44:10;12.70;;;10.50;;
77571;SDS011;67214;47.454;18.966;2023-08-30T08:46:39;13.28;;;9.75;;
77571;SDS011;67214;47.454;18.966;2023-08-30T08:49:14;13.05;;;9.68;;
77571;SDS011;67214;47.454;18.966;2023-08-30T08:51:42;10.88;;;6.87;;
77571;SDS011;67214;47.454;18.966;2023-08-30T08:54:11;13.10;;;9.83;;
77571;SDS011;67214;47.454;18.966;2023-08-30T08:56:39;11.70;;;8.73;;
77571;SDS011;67214;47.454;18.966;2023-08-30T08:59:07;13.83;;;10.03;;
77571;SDS011;67214;47.454;18.966;2023-08-30T09:01:35;12.95;;;9.03;;
77571;SDS011;67214;47.454;18.966;2023-08-30T09:04:06;13.65;;;9.85;;
77571;SDS011;67214;47.454;18.966;2023-08-30T09:06:37;10.30;;;8.85;;
77571;SDS011;67214;47.454;18.966;2023-08-30T09:09:12;11.57;;;9.13;;
77571;SDS011;67214;47.454;18.966;2023-08-30T09:11:40;12.68;;;8.60;;
77571;SDS011;67214;47.454;18.966;2023-08-30T09:14:13;12.10;;;9.03;;
77571;SDS011;67214;47.454;18.966;2023-08-30T09:16:37;10.32;;;8.23;;
77571;SDS011;67214;47.454;18.966;2023-08-30T09:19:04;9.70;;;7.85;;
77571;SDS011;67214;47.454;18.966;2023-08-30T09:21:33;8.70;;;7.55;;
77571;SDS011;67214;47.454;18.966;2023-08-30T09:24:06;13.78;;;9.88;;
77571;SDS011;67214;47.454;18.966;2023-08-30T09:26:30;11.20;;;9.15;;
77571;SDS011;67214;47.454;18.966;2023-08-30T09:29:03;11.48;;;8.85;;
77571;SDS011;67214;47.454;18.966;2023-08-30T09:31:34;16.52;;;9.15;;
77571;SDS011;67214;47.454;18.966;2023-08-30T09:34:03;11.63;;;8.75;;
77571;SDS011;67214;47.454;18.966;2023-08-30T09:36:37;11.75;;;8.58;;
77571;SDS011;67214;47.454;18.966;2023-08-30T09:39:09;9.55;;;8.33;;
77571;SDS011;67214;47.454;18.966;2023-08-30T09:41:41;11.25;;;8.10;;
77571;SDS011;67214;47.454;18.966;2023-08-30T09:44:16;12.15;;;8.45;;
77571;SDS011;67214;47.454;18.966;2023-08-30T09:46:54;10.48;;;7.60;;
77571;SDS011;67214;47.454;18.966;2023-08-30T09:49:22;9.48;;;7.72;;
77571;SDS011;67214;47.454;18.966;2023-08-30T09:51:52;11.68;;;7.12;;
77571;SDS011;67214;47.454;18.966;2023-08-30T09:54:21;8.65;;;6.40;;
77571;SDS011;67214;47.454;18.966;2023-08-30T09:56:50;8.55;;;7.03;;
77571;SDS011;67214;47.454;18.966;2023-08-30T09:59:21;8.38;;;6.05;;
77571;SDS011;67214;47.454;18.966;2023-08-30T10:01:49;11.12;;;6.62;;
77571;SDS011;67214;47.454;18.966;2023-08-30T10:04:20;8.60;;;6.72;;
77571;SDS011;67214;47.454;18.966;2023-08-30T10:06:49;9.05;;;6.53;;
77571;SDS011;67214;47.454;18.966;2023-08-30T10:09:18;9.78;;;5.70;;
77571;SDS011;67214;47.454;18.966;2023-08-30T10:11:47;8.50;;;6.65;;
77571;SDS011;67214;47.454;18.966;2023-08-30T10:14:17;9.20;;;6.40;;
77571;SDS011;67214;47.454;18.966;2023-08-30T10:16:45;9.30;;;7.10;;
77571;SDS011;67214;47.454;18.966;2023-08-30T10:19:17;7.75;;;5.83;;
77571;SDS011;67214;47.454;18.966;2023-08-30T10:22:05;7.08;;;6.22;;
77571;SDS011;67214;47.454;18.966;2023-08-30T10:27:15;10.23;;;5.45;;
77571;SDS011;67214;47.454;18.966;2023-08-30T10:29:43;8.70;;;5.70;;
77571;SDS011;67214;47.454;18.966;2023-08-30T10:32:18;9.63;;;5.53;;
77571;SDS011;67214;47.454;18.966;2023-08-30T10:34:48;10.63;;;5.10;;
77571;SDS011;67214;47.454;18.966;2023-08-30T10:37:22;8.38;;;4.40;;
77571;SDS011;67214;47.454;18.966;2023-08-30T10:39:49;7.83;;;5.10;;
77571;SDS011;67214;47.454;18.966;2023-08-30T10:42:21;7.03;;;4.53;;
77571;SDS011;67214;47.454;18.966;2023-08-30T10:44:48;8.15;;;4.67;;
77571;SDS011;67214;47.454;18.966;2023-08-30T10:47:33;7.42;;;4.58;;
77571;SDS011;67214;47.454;18.966;2023-08-30T10:50:06;6.58;;;5.20;;
77571;SDS011;67214;47.454;18.966;2023-08-30T10:52:35;7.60;;;4.85;;
77571;SDS011;67214;47.454;18.966;2023-08-30T10:55:16;5.40;;;4.62;;
77571;SDS011;67214;47.454;18.966;2023-08-30T10:57:44;5.15;;;4.37;;
77571;SDS011;67214;47.454;18.966;2023-08-30T11:02:45;6.28;;;4.62;;
77571;SDS011;67214;47.454;18.966;2023-08-30T11:05:15;5.25;;;3.83;;
77571;SDS011;67214;47.454;18.966;2023-08-30T11:07:44;5.12;;;3.47;;
77571;SDS011;67214;47.454;18.966;2023-08-30T11:10:12;5.35;;;3.42;;
77571;SDS011;67214;47.454;18.966;2023-08-30T11:12:41;4.65;;;3.50;;
77571;SDS011;67214;47.454;18.966;2023-08-30T11:15:10;4.60;;;3.42;;
77571;SDS011;67214;47.454;18.966;2023-08-30T11:17:41;5.20;;;3.65;;
77571;SDS011;67214;47.454;18.966;2023-08-30T11:20:10;4.05;;;3.10;;
77571;SDS011;67214;47.454;18.966;2023-08-30T11:22:39;4.65;;;3.60;;
77571;SDS011;67214;47.454;18.966;2023-08-30T11:25:09;4.92;;;3.42;;
77571;SDS011;67214;47.454;18.966;2023-08-30T11:27:38;3.83;;;3.35;;
77571;SDS011;67214;47.454;18.966;2023-08-30T11:30:07;4.67;;;2.83;;
77571;SDS011;67214;47.454;18.966;2023-08-30T11:32:36;5.08;;;3.33;;
77571;SDS011;67214;47.454;18.966;2023-08-30T11:35:05;4.20;;;3.27;;
77571;SDS011;67214;47.454;18.966;2023-08-30T11:37:33;3.85;;;3.22;;
77571;SDS011;67214;47.454;18.966;2023-08-30T11:40:06;5.35;;;3.70;;
77571;SDS011;67214;47.454;18.966;2023-08-30T11:42:31;4.78;;;4.08;;
77571;SDS011;67214;47.454;18.966;2023-08-30T11:44:59;6.85;;;3.77;;
77571;SDS011;67214;47.454;18.966;2023-08-30T11:47:28;5.87;;;3.98;;
77571;SDS011;67214;47.454;18.966;2023-08-30T11:49:56;5.65;;;3.98;;
77571;SDS011;67214;47.454;18.966;2023-08-30T11:52:24;5.55;;;4.30;;
77571;SDS011;67214;47.454;18.966;2023-08-30T11:54:52;5.97;;;3.75;;
77571;SDS011;67214;47.454;18.966;2023-08-30T11:57:21;5.30;;;3.75;;
77571;SDS011;67214;47.454;18.966;2023-08-30T11:59:48;6.33;;;4.58;;
77571;SDS011;67214;47.454;18.966;2023-08-30T12:02:16;5.03;;;3.85;;
77571;SDS011;67214;47.454;18.966;2023-08-30T12:04:45;5.25;;;4.10;;
77571;SDS011;67214;47.454;18.966;2023-08-30T12:07:23;5.70;;;3.72;;
77571;SDS011;67214;47.454;18.966;2023-08-30T12:09:52;5.55;;;4.12;;
77571;SDS011;67214;47.454;18.966;2023-08-30T12:12:22;5.78;;;3.83;;
77571;SDS011;67214;47.454;18.966;2023-08-30T12:14:56;5.45;;;4.30;;
77571;SDS011;67214;47.454;18.966;2023-08-30T12:17:24;5.15;;;4.33;;
77571;SDS011;67214;47.454;18.966;2023-08-30T12:19:55;7.20;;;3.87;;
77571;SDS011;67214;47.454;18.966;2023-08-30T12:22:37;5.10;;;3.87;;
77571;SDS011;67214;47.454;18.966;2023-08-30T12:25:21;4.87;;;4.10;;
77571;SDS011;67214;47.454;18.966;2023-08-30T12:27:50;7.00;;;4.13;;
77571;SDS011;67214;47.454;18.966;2023-08-30T12:30:17;5.10;;;4.58;;
77571;SDS011;67214;47.454;18.966;2023-08-30T12:32:45;6.97;;;4.60;;
77571;SDS011;67214;47.454;18.966;2023-08-30T12:35:15;5.00;;;4.28;;
77571;SDS011;67214;47.454;18.966;2023-08-30T12:37:42;6.45;;;4.47;;
77571;SDS011;67214;47.454;18.966;2023-08-30T12:40:10;5.75;;;4.85;;
77571;SDS011;67214;47.454;18.966;2023-08-30T12:42:37;6.58;;;5.35;;
77571;SDS011;67214;47.454;18.966;2023-08-30T12:45:05;6.45;;;4.50;;
77571;SDS011;67214;47.454;18.966;2023-08-30T12:47:33;8.25;;;5.20;;
77571;SDS011;67214;47.454;18.966;2023-08-30T12:50:00;7.33;;;4.60;;
77571;SDS011;67214;47.454;18.966;2023-08-30T12:52:28;6.85;;;4.58;;
77571;SDS011;67214;47.454;18.966;2023-08-30T12:54:55;9.78;;;5.10;;
77571;SDS011;67214;47.454;18.966;2023-08-30T12:57:23;6.47;;;4.72;;
77571;SDS011;67214;47.454;18.966;2023-08-30T12:59:51;5.22;;;4.25;;
77571;SDS011;67214;47.454;18.966;2023-08-30T13:02:19;8.05;;;4.87;;
77571;SDS011;67214;47.454;18.966;2023-08-30T13:04:46;5.30;;;3.87;;
77571;SDS011;67214;47.454;18.966;2023-08-30T13:07:13;7.10;;;4.15;;
77571;SDS011;67214;47.454;18.966;2023-08-30T13:09:41;4.62;;;3.33;;
77571;SDS011;67214;47.454;18.966;2023-08-30T13:12:09;6.62;;;4.28;;
77571;SDS011;67214;47.454;18.966;2023-08-30T13:14:36;7.33;;;4.40;;
77571;SDS011;67214;47.454;18.966;2023-08-30T13:17:04;7.35;;;4.12;;
77571;SDS011;67214;47.454;18.966;2023-08-30T13:19:31;6.78;;;3.52;;
77571;SDS011;67214;47.454;18.966;2023-08-30T13:21:59;3.90;;;3.50;;
77571;SDS011;67214;47.454;18.966;2023-08-30T13:24:27;4.65;;;4.00;;
77571;SDS011;67214;47.454;18.966;2023-08-30T13:26:56;4.20;;;3.45;;
77571;SDS011;67214;47.454;18.966;2023-08-30T13:29:24;6.80;;;3.85;;
77571;SDS011;67214;47.454;18.966;2023-08-30T13:31:52;7.87;;;3.75;;
77571;SDS011;67214;47.454;18.966;2023-08-30T13:34:19;4.58;;;3.45;;
77571;SDS011;67214;47.454;18.966;2023-08-30T13:36:47;5.80;;;3.22;;
77571;SDS011;67214;47.454;18.966;2023-08-30T13:39:15;4.85;;;3.70;;
77571;SDS011;67214;47.454;18.966;2023-08-30T13:41:44;4.30;;;2.98;;
77571;SDS011;67214;47.454;18.966;2023-08-30T13:44:11;4.25;;;3.35;;
77571;SDS011;67214;47.454;18.966;2023-08-30T13:46:39;4.95;;;3.33;;
77571;SDS011;67214;47.454;18.966;2023-08-30T13:49:08;3.45;;;2.90;;
77571;SDS011;67214;47.454;18.966;2023-08-30T13:51:36;4.65;;;3.40;;
77571;SDS011;67214;47.454;18.966;2023-08-30T13:54:04;6.22;;;3.77;;
77571;SDS011;67214;47.454;18.966;2023-08-30T13:56:31;6.37;;;3.12;;
77571;SDS011;67214;47.454;18.966;2023-08-30T13:58:59;7.10;;;3.22;;
77571;SDS011;67214;47.454;18.966;2023-08-30T14:01:26;3.30;;;2.83;;
77571;SDS011;67214;47.454;18.966;2023-08-30T14:03:54;6.33;;;3.50;;
77571;SDS011;67214;47.454;18.966;2023-08-30T14:06:21;5.05;;;3.37;;
77571;SDS011;67214;47.454;18.966;2023-08-30T14:08:49;4.05;;;3.30;;
77571;SDS011;67214;47.454;18.966;2023-08-30T14:11:16;3.98;;;3.47;;
77571;SDS011;67214;47.454;18.966;2023-08-30T14:13:44;5.25;;;3.72;;
77571;SDS011;67214;47.454;18.966;2023-08-30T14:16:12;4.30;;;3.42;;
77571;SDS011;67214;47.454;18.966;2023-08-30T14:18:39;6.15;;;3.25;;
77571;SDS011;67214;47.454;18.966;2023-08-30T14:21:07;4.50;;;2.92;;
77571;SDS011;67214;47.454;18.966;2023-08-30T14:23:34;4.22;;;2.90;;
77571;SDS011;67214;47.454;18.966;2023-08-30T14:26:02;5.00;;;2.77;;
77571;SDS011;67214;47.454;18.966;2023-08-30T14:28:39;5.30;;;2.90;;
77571;SDS011;67214;47.454;18.966;2023-08-30T14:31:07;4.87;;;2.80;;
77571;SDS011;67214;47.454;18.966;2023-08-30T14:33:36;5.05;;;3.00;;
77571;SDS011;67214;47.454;18.966;2023-08-30T14:36:10;4.30;;;2.52;;
77571;SDS011;67214;47.454;18.966;2023-08-30T14:38:38;4.47;;;3.00;;
77571;SDS011;67214;47.454;18.966;2023-08-30T14:41:06;6.97;;;3.20;;
77571;SDS011;67214;47.454;18.966;2023-08-30T14:43:34;3.47;;;2.58;;